Time;durP1;ratioP1;P1;durP2;ratioP2;P2;SDS_P1;SDS_P2;PMS_P1;PMS_P2;Temp;Humidity;BMP_temperature;BMP_pressure;BME280_temperature;BME280_humidity;BME280_pressure;Samples;Min_cycle;Max_cycle;Signal;HPM_P1;HPM_P2
2023/08/11 00:13:08;;;;;;;18.10;9.00;;;;;;;18.10;85.90;100923.90;669995;1262;140420;-78
2023/08/11 00:28:11;;;;;;;16.40;10.50;;;;;;;18.65;85.12;100929.51;670194;1262;139588;-78
2023/08/11 00:43:14;;;;;;;14.00;9.80;;;;;;;18.77;85.07;100928.50;670418;1263;140182;-77
2023/08/11 00:58:18;;;;;;;16.70;12.20;;;;;;;18.60;85.94;100934.58;670348;1262;139620;-78
2023/08/11 01:13:23;;;;;;;21.90;13.80;;;;;;;18.40;85.91;100930.56;670143;1262;139742;-78
2023/08/11 01:28:27;;;;;;;21.40;13.30;;;;;;;17.95;85.76;100928.92;670427;1259;140016;-77
2023/08/11 01:43:31;;;;;;;21.60;12.40;;;;;;;17.81;85.47;100920.66;670298;1259;140349;-75
2023/08/11 01:58:34;;;;;;;14.80;10.70;;;;;;;17.86;83.09;100919.52;670863;1273;140572;-76
2023/08/11 02:13:37;;;;;;;16.20;9.80;;;;;;;17.74;83.44;100915.11;669839;1263;139931;-79
2023/08/11 02:28:41;;;;;;;14.00;9.60;;;;;;;17.52;84.10;100922.60;669770;1263;139618;-76
2023/08/11 02:43:45;;;;;;;22.80;13.80;;;;;;;17.55;82.85;100929.13;670523;1262;139559;-77
2023/08/11 02:58:48;;;;;;;12.50;9.00;;;;;;;17.31;82.67;100936.66;671740;1260;139338;-77
2023/08/11 03:13:51;;;;;;;17.80;9.90;;;;;;;17.22;81.86;100938.97;670447;1262;141880;-76
2023/08/11 03:28:54;;;;;;;16.50;10.00;;;;;;;17.08;83.05;100937.13;672335;1259;139873;-76
2023/08/11 03:43:58;;;;;;;18.40;10.50;;;;;;;17.16;82.79;100938.84;676788;1263;140094;-77
2023/08/11 03:59:02;;;;;;;13.30;9.80;;;;;;;16.99;82.78;100941.21;674180;1262;139551;-76
2023/08/11 04:14:06;;;;;;;16.10;11.20;;;;;;;17.18;82.11;100941.72;677638;1262;139252;-77
2023/08/11 04:29:10;;;;;;;14.90;10.00;;;;;;;17.41;81.53;100945.16;676352;1260;140419;-78
2023/08/11 04:44:14;;;;;;;20.60;11.30;;;;;;;17.58;81.70;100948.85;676016;1262;140332;-78
2023/08/11 04:59:18;;;;;;;17.20;9.60;;;;;;;17.73;82.70;100953.81;676957;1262;140995;-76
2023/08/11 05:14:22;;;;;;;17.70;10.70;;;;;;;18.22;82.04;100958.58;675369;1261;139326;-77
2023/08/11 05:29:26;;;;;;;17.70;10.70;;;;;;;19.07;82.40;100956.91;672924;1262;140360;-76
2023/08/11 05:44:29;;;;;;;9.40;7.00;;;;;;;21.48;81.87;100961.14;672673;1274;141120;-77
2023/08/11 05:59:32;;;;;;;9.90;6.50;;;;;;;25.30;76.94;100966.99;672050;1260;139988;-78
2023/08/11 06:14:35;;;;;;;12.00;5.80;;;;;;;27.20;70.97;100970.59;672151;1259;139538;-77
2023/08/11 06:29:39;;;;;;;9.60;4.80;;;;;;;28.97;65.61;100969.66;670772;1263;139697;-77
2023/08/11 06:44:44;;;;;;;10.40;4.60;;;;;;;29.95;62.39;100974.13;672700;1270;138651;-78
2023/08/11 06:59:47;;;;;;;3.90;1.80;;;;;;;31.01;58.17;100985.81;669201;1263;139417;-77
2023/08/11 07:14:51;;;;;;;3.60;1.80;;;;;;;31.73;52.31;100994.82;669338;1263;139707;-77
2023/08/11 07:29:54;;;;;;;4.70;2.10;;;;;;;32.38;50.30;101010.96;673187;1272;139314;-77
2023/08/11 07:44:57;;;;;;;3.10;1.70;;;;;;;32.47;47.33;101006.04;672330;1263;138762;-77
2023/08/11 08:00:01;;;;;;;6.30;1.90;;;;;;;32.82;47.20;101004.26;670246;1263;139228;-78
2023/08/11 08:15:16;;;;;;;5.40;1.80;;;;;;;33.07;45.44;100998.30;671094;1264;138815;-77
2023/08/11 08:30:20;;;;;;;3.00;1.30;;;;;;;32.54;44.66;101007.60;670343;1262;139734;-77
2023/08/11 08:45:24;;;;;;;3.60;1.40;;;;;;;32.46;43.02;101015.02;669994;1272;139041;-77
2023/08/11 09:00:28;;;;;;;6.20;1.60;;;;;;;32.76;41.60;101020.43;670576;1261;139570;-77
2023/08/11 09:15:32;;;;;;;3.30;1.30;;;;;;;33.14;41.25;101021.52;673602;1263;139381;-80
2023/08/11 09:30:36;;;;;;;4.20;1.60;;;;;;;31.91;40.31;101013.13;672651;1262;139921;-77
2023/08/11 09:45:39;;;;;;;4.30;1.50;;;;;;;32.10;41.71;101003.35;670583;1260;138726;-76
2023/08/11 10:00:45;;;;;;;3.90;1.50;;;;;;;33.16;40.87;101002.23;669508;1263;139129;-76
2023/08/11 10:15:50;;;;;;;5.00;1.40;;;;;;;33.68;40.66;101006.46;669341;1273;139714;-76
2023/08/11 10:31:02;;;;;;;3.20;1.60;;;;;;;32.25;41.70;101008.27;672257;1278;139346;-76
2023/08/11 10:46:24;;;;;;;3.80;1.20;;;;;;;32.11;39.58;101009.41;671770;1262;139996;-76
2023/08/11 11:01:28;;;;;;;8.70;5.40;;;;;;;30.35;40.14;101010.66;670988;1263;139225;-77
2023/08/11 11:16:32;;;;;;;7.80;1.60;;;;;;;30.37;41.95;101014.85;671569;1263;139105;-77
2023/08/11 11:31:39;;;;;;;3.10;1.30;;;;;;;33.00;40.42;101016.59;670312;1264;139733;-80
2023/08/11 11:46:42;;;;;;;6.50;1.90;;;;;;;33.12;39.51;101015.53;670682;1259;138749;-79
2023/08/11 12:01:46;;;;;;;6.40;2.40;;;;;;;32.40;41.06;101014.59;669759;1279;138897;-78
2023/08/11 12:16:49;;;;;;;5.30;1.60;;;;;;;32.07;40.79;101006.45;669771;1260;139296;-76
2023/08/11 12:31:52;;;;;;;3.30;1.30;;;;;;;32.00;40.78;100994.30;671137;1262;139570;-77
2023/08/11 12:46:56;;;;;;;3.80;1.50;;;;;;;32.00;37.59;100985.27;671595;1261;138795;-77
2023/08/11 13:01:59;;;;;;;5.70;1.70;;;;;;;31.26;38.99;100988.02;673567;1262;139415;-78
2023/08/11 13:17:02;;;;;;;3.90;2.00;;;;;;;31.96;37.77;100977.45;672107;1259;139157;-78
2023/08/11 13:32:06;;;;;;;4.10;1.80;;;;;;;31.66;38.14;100980.52;674117;1262;141264;-76
2023/08/11 13:47:10;;;;;;;7.10;2.30;;;;;;;30.68;37.48;100971.37;672743;1263;138294;-78
2023/08/11 14:02:13;;;;;;;7.80;1.70;;;;;;;30.94;38.84;100974.14;673710;1264;140397;-76
2023/08/11 14:17:17;;;;;;;4.90;2.10;;;;;;;30.61;38.78;100966.00;674458;1259;139706;-75
2023/08/11 14:32:20;;;;;;;3.80;2.10;;;;;;;31.24;39.61;100963.69;672014;1260;139537;-76
2023/08/11 14:47:28;;;;;;;8.60;1.90;;;;;;;31.07;40.22;100958.49;672426;1262;138893;-76
2023/08/11 15:02:32;;;;;;;5.60;2.00;;;;;;;30.14;39.80;100956.55;671357;1263;139893;-76
2023/08/11 15:17:36;;;;;;;4.20;1.80;;;;;;;30.65;39.80;100954.21;671774;1262;139125;-76
2023/08/11 15:32:39;;;;;;;10.00;1.70;;;;;;;30.86;40.57;100964.81;671041;1262;139187;-77
2023/08/11 15:47:42;;;;;;;3.70;1.80;;;;;;;30.08;41.10;100951.77;671154;1261;139246;-75
2023/08/11 16:02:46;;;;;;;4.80;1.80;;;;;;;29.24;42.71;100956.39;675306;1262;252932;-77
2023/08/11 16:17:53;;;;;;;11.70;6.10;;;;;;;29.45;43.26;100952.53;669158;1260;139449;-77
2023/08/11 16:33:06;;;;;;;6.20;3.00;;;;;;;29.35;42.92;100949.02;679676;1262;24937;-77
2023/08/11 16:48:26;;;;;;;13.30;3.60;;;;;;;28.14;44.54;100951.09;681959;1263;22130;-78
2023/08/11 17:03:50;;;;;;;10.60;6.60;;;;;;;27.42;45.69;100948.79;677761;1263;137297;-76
2023/08/11 17:19:11;;;;;;;11.20;7.70;;;;;;;27.39;46.51;100951.05;682453;1262;22113;-78
2023/08/11 17:34:26;;;;;;;30.70;21.00;;;;;;;26.79;48.07;100958.48;677936;1262;137315;-77
2023/08/11 17:49:42;;;;;;;55.20;20.90;;;;;;;26.20;49.23;100962.71;675931;1264;138628;-77
2023/08/11 18:04:52;;;;;;;97.40;51.70;;;;;;;25.29;50.95;100974.23;679701;1262;137660;-77
2023/08/11 18:20:10;;;;;;;90.40;44.50;;;;;;;23.95;52.10;100989.58;681205;1262;138275;-76
2023/08/11 18:35:35;;;;;;;24.20;12.70;;;;;;;23.01;53.80;101003.23;681649;1263;137105;-77
2023/08/11 18:51:45;;;;;;;20.10;12.20;;;;;;;21.96;55.80;101007.81;680362;1261;139066;-77
2023/08/11 19:07:05;;;;;;;16.30;10.30;;;;;;;21.88;56.69;101023.21;680537;1263;138958;-77
2023/08/11 19:22:19;;;;;;;9.60;6.80;;;;;;;22.17;57.07;101026.04;679563;1263;138819;-77
2023/08/11 19:37:23;;;;;;;17.80;5.10;;;;;;;21.63;58.07;101031.95;670747;1265;138891;-77
2023/08/11 19:52:27;;;;;;;13.90;4.20;;;;;;;20.87;59.61;101035.28;669980;1265;139104;-79
2023/08/11 20:07:31;;;;;;;23.50;6.50;;;;;;;20.06;61.49;101038.63;670083;1267;139174;-78
2023/08/11 20:22:35;;;;;;;11.70;5.30;;;;;;;20.07;62.13;101037.56;669441;1264;140147;-78
2023/08/11 20:37:39;;;;;;;19.20;5.70;;;;;;;19.77;62.58;101044.77;670322;1265;139818;-78
2023/08/11 20:52:42;;;;;;;20.40;7.00;;;;;;;19.37;63.15;101039.02;670325;1265;139028;-78
2023/08/11 21:07:46;;;;;;;15.80;5.40;;;;;;;19.30;64.47;101044.80;669827;1263;139697;-78
2023/08/11 21:22:50;;;;;;;13.90;6.10;;;;;;;19.22;64.76;101041.10;669699;1265;139359;-78
2023/08/11 21:37:53;;;;;;;13.30;7.40;;;;;;;18.59;65.75;101036.82;669482;1265;139839;-77
2023/08/11 21:52:57;;;;;;;15.50;7.20;;;;;;;17.90;67.86;101039.56;669599;1265;139295;-77
2023/08/11 22:08:15;;;;;;;21.10;8.30;;;;;;;18.10;67.90;101044.08;669479;1265;139524;-77
2023/08/11 22:23:19;;;;;;;13.50;7.50;;;;;;;18.20;66.66;101038.74;669370;1276;139170;-77
2023/08/11 22:38:22;;;;;;;20.80;8.50;;;;;;;18.09;66.46;101036.27;669529;1265;139550;-77
2023/08/11 22:53:26;;;;;;;19.30;9.80;;;;;;;18.11;67.98;101037.48;669681;1263;139282;-76
2023/08/11 23:08:30;;;;;;;19.90;11.00;;;;;;;17.70;68.73;101029.73;667508;1265;139945;-76
2023/08/11 23:23:33;;;;;;;23.40;9.20;;;;;;;17.11;69.86;101020.36;667835;1266;141008;-77
2023/08/11 23:38:37;;;;;;;22.50;9.20;;;;;;;17.06;70.28;101014.36;667646;1265;140274;-76
2023/08/11 23:53:41;;;;;;;19.20;9.00;;;;;;;16.81;70.29;101014.59;668338;1276;139070;-76
